sensor_id;sensor_type;location;lat;lon;timestamp;P1;durP1;ratioP1;P2;durP2;ratioP2
47481;SDS011;33219;47.410;9.730;2023-01-08T00:00:03;22.90;;;15.00;;
47481;SDS011;33219;47.410;9.730;2023-01-08T00:02:32;24.13;;;14.90;;
47481;SDS011;33219;47.410;9.730;2023-01-08T00:04:59;18.73;;;13.60;;
47481;SDS011;33219;47.410;9.730;2023-01-08T00:07:27;20.87;;;13.93;;
47481;SDS011;33219;47.410;9.730;2023-01-08T00:09:55;21.80;;;13.70;;
47481;SDS011;33219;47.410;9.730;2023-01-08T00:12:22;20.03;;;13.23;;
47481;SDS011;33219;47.410;9.730;2023-01-08T00:14:50;21.67;;;14.33;;
47481;SDS011;33219;47.410;9.730;2023-01-08T00:17:17;21.47;;;12.93;;
47481;SDS011;33219;47.410;9.730;2023-01-08T00:19:45;21.33;;;12.73;;
47481;SDS011;33219;47.410;9.730;2023-01-08T00:22:12;20.97;;;13.23;;
47481;SDS011;33219;47.410;9.730;2023-01-08T00:24:40;18.97;;;11.93;;
47481;SDS011;33219;47.410;9.730;2023-01-08T00:27:08;20.13;;;11.57;;
47481;SDS011;33219;47.410;9.730;2023-01-08T00:29:35;20.23;;;11.77;;
47481;SDS011;33219;47.410;9.730;2023-01-08T00:32:03;18.00;;;11.07;;
47481;SDS011;33219;47.410;9.730;2023-01-08T00:34:31;19.43;;;11.23;;
47481;SDS011;33219;47.410;9.730;2023-01-08T00:36:58;15.93;;;10.13;;
47481;SDS011;33219;47.410;9.730;2023-01-08T00:39:26;14.60;;;9.80;;
47481;SDS011;33219;47.410;9.730;2023-01-08T00:41:53;15.63;;;9.93;;
47481;SDS011;33219;47.410;9.730;2023-01-08T00:44:21;9.83;;;7.30;;
47481;SDS011;33219;47.410;9.730;2023-01-08T00:46:48;14.83;;;8.17;;
47481;SDS011;33219;47.410;9.730;2023-01-08T00:49:16;12.97;;;9.07;;
47481;SDS011;33219;47.410;9.730;2023-01-08T00:51:43;15.43;;;9.40;;
47481;SDS011;33219;47.410;9.730;2023-01-08T00:54:11;14.77;;;9.53;;
47481;SDS011;33219;47.410;9.730;2023-01-08T00:56:39;12.10;;;7.37;;
47481;SDS011;33219;47.410;9.730;2023-01-08T00:59:06;8.67;;;6.17;;
47481;SDS011;33219;47.410;9.730;2023-01-08T01:01:34;13.70;;;8.43;;
47481;SDS011;33219;47.410;9.730;2023-01-08T01:04:02;12.43;;;8.10;;
47481;SDS011;33219;47.410;9.730;2023-01-08T01:06:30;13.27;;;8.30;;
47481;SDS011;33219;47.410;9.730;2023-01-08T01:08:57;10.90;;;7.57;;
47481;SDS011;33219;47.410;9.730;2023-01-08T01:11:25;12.83;;;7.90;;
47481;SDS011;33219;47.410;9.730;2023-01-08T01:13:55;6.43;;;3.53;;
47481;SDS011;33219;47.410;9.730;2023-01-08T01:16:23;9.40;;;6.33;;
47481;SDS011;33219;47.410;9.730;2023-01-08T01:18:51;9.30;;;4.80;;
47481;SDS011;33219;47.410;9.730;2023-01-08T01:21:29;11.47;;;7.10;;
47481;SDS011;33219;47.410;9.730;2023-01-08T01:23:58;3.63;;;2.10;;
47481;SDS011;33219;47.410;9.730;2023-01-08T01:26:28;3.20;;;1.93;;
47481;SDS011;33219;47.410;9.730;2023-01-08T01:28:56;8.70;;;5.47;;
47481;SDS011;33219;47.410;9.730;2023-01-08T01:31:25;8.53;;;4.70;;
47481;SDS011;33219;47.410;9.730;2023-01-08T01:33:54;8.10;;;4.43;;
47481;SDS011;33219;47.410;9.730;2023-01-08T01:36:22;10.60;;;6.03;;
47481;SDS011;33219;47.410;9.730;2023-01-08T01:38:52;10.90;;;6.60;;
47481;SDS011;33219;47.410;9.730;2023-01-08T01:41:25;11.73;;;7.10;;
47481;SDS011;33219;47.410;9.730;2023-01-08T01:43:55;10.60;;;6.67;;
47481;SDS011;33219;47.410;9.730;2023-01-08T01:46:32;12.67;;;6.53;;
47481;SDS011;33219;47.410;9.730;2023-01-08T01:49:08;11.57;;;7.00;;
47481;SDS011;33219;47.410;9.730;2023-01-08T01:51:36;9.97;;;6.57;;
47481;SDS011;33219;47.410;9.730;2023-01-08T01:54:07;11.07;;;6.30;;
47481;SDS011;33219;47.410;9.730;2023-01-08T01:56:37;9.73;;;7.33;;
47481;SDS011;33219;47.410;9.730;2023-01-08T01:59:04;10.70;;;6.77;;
47481;SDS011;33219;47.410;9.730;2023-01-08T02:01:32;11.97;;;7.00;;
47481;SDS011;33219;47.410;9.730;2023-01-08T02:04:01;11.33;;;7.10;;
47481;SDS011;33219;47.410;9.730;2023-01-08T02:16:50;12.20;;;7.43;;
47481;SDS011;33219;47.410;9.730;2023-01-08T02:22:11;9.87;;;6.43;;
47481;SDS011;33219;47.410;9.730;2023-01-08T02:24:40;10.47;;;6.73;;
47481;SDS011;33219;47.410;9.730;2023-01-08T02:27:24;10.83;;;6.87;;
47481;SDS011;33219;47.410;9.730;2023-01-08T02:29:54;10.90;;;7.40;;
47481;SDS011;33219;47.410;9.730;2023-01-08T02:32:24;13.80;;;8.27;;
47481;SDS011;33219;47.410;9.730;2023-01-08T02:34:53;12.07;;;7.57;;
47481;SDS011;33219;47.410;9.730;2023-01-08T02:37:21;13.83;;;7.70;;
47481;SDS011;33219;47.410;9.730;2023-01-08T02:42:35;12.27;;;7.57;;
47481;SDS011;33219;47.410;9.730;2023-01-08T02:45:14;12.30;;;7.00;;
47481;SDS011;33219;47.410;9.730;2023-01-08T02:47:45;9.97;;;5.53;;
47481;SDS011;33219;47.410;9.730;2023-01-08T02:50:23;8.83;;;5.23;;
47481;SDS011;33219;47.410;9.730;2023-01-08T02:53:13;7.87;;;5.07;;
47481;SDS011;33219;47.410;9.730;2023-01-08T02:55:54;9.33;;;5.13;;
47481;SDS011;33219;47.410;9.730;2023-01-08T02:58:14;8.03;;;5.07;;
47481;SDS011;33219;47.410;9.730;2023-01-08T03:00:42;7.13;;;3.27;;
47481;SDS011;33219;47.410;9.730;2023-01-08T03:03:21;7.70;;;4.90;;
47481;SDS011;33219;47.410;9.730;2023-01-08T03:05:47;8.47;;;5.47;;
47481;SDS011;33219;47.410;9.730;2023-01-08T03:08:15;9.57;;;5.93;;
47481;SDS011;33219;47.410;9.730;2023-01-08T03:10:44;10.50;;;5.73;;
47481;SDS011;33219;47.410;9.730;2023-01-08T03:13:16;7.73;;;4.87;;
47481;SDS011;33219;47.410;9.730;2023-01-08T03:15:56;8.60;;;5.23;;
47481;SDS011;33219;47.410;9.730;2023-01-08T03:18:24;7.03;;;4.50;;
47481;SDS011;33219;47.410;9.730;2023-01-08T03:20:52;7.13;;;4.03;;
47481;SDS011;33219;47.410;9.730;2023-01-08T03:23:20;6.10;;;3.90;;
47481;SDS011;33219;47.410;9.730;2023-01-08T03:25:49;7.93;;;3.50;;
47481;SDS011;33219;47.410;9.730;2023-01-08T03:28:21;11.67;;;6.00;;
47481;SDS011;33219;47.410;9.730;2023-01-08T03:30:48;10.17;;;5.50;;
47481;SDS011;33219;47.410;9.730;2023-01-08T03:33:17;10.73;;;7.60;;
47481;SDS011;33219;47.410;9.730;2023-01-08T03:35:48;10.07;;;7.77;;
47481;SDS011;33219;47.410;9.730;2023-01-08T03:38:23;13.00;;;8.73;;
47481;SDS011;33219;47.410;9.730;2023-01-08T03:40:50;13.53;;;9.30;;
47481;SDS011;33219;47.410;9.730;2023-01-08T03:43:19;14.67;;;8.87;;
47481;SDS011;33219;47.410;9.730;2023-01-08T03:45:48;13.87;;;9.43;;
47481;SDS011;33219;47.410;9.730;2023-01-08T03:48:17;13.53;;;9.53;;
47481;SDS011;33219;47.410;9.730;2023-01-08T03:50:46;15.87;;;10.07;;
47481;SDS011;33219;47.410;9.730;2023-01-08T03:53:14;15.70;;;10.40;;
47481;SDS011;33219;47.410;9.730;2023-01-08T03:55:42;15.57;;;10.23;;
47481;SDS011;33219;47.410;9.730;2023-01-08T03:58:09;16.77;;;11.57;;
47481;SDS011;33219;47.410;9.730;2023-01-08T04:00:37;18.10;;;12.63;;
47481;SDS011;33219;47.410;9.730;2023-01-08T04:03:05;17.20;;;11.70;;
47481;SDS011;33219;47.410;9.730;2023-01-08T04:05:33;19.87;;;12.17;;
47481;SDS011;33219;47.410;9.730;2023-01-08T04:08:00;19.40;;;13.03;;
47481;SDS011;33219;47.410;9.730;2023-01-08T04:10:28;19.60;;;12.77;;
47481;SDS011;33219;47.410;9.730;2023-01-08T04:12:56;16.70;;;12.00;;
47481;SDS011;33219;47.410;9.730;2023-01-08T04:15:23;18.53;;;11.97;;
47481;SDS011;33219;47.410;9.730;2023-01-08T04:17:51;17.77;;;11.47;;
47481;SDS011;33219;47.410;9.730;2023-01-08T04:20:19;16.77;;;10.67;;
47481;SDS011;33219;47.410;9.730;2023-01-08T04:22:47;18.13;;;10.90;;
47481;SDS011;33219;47.410;9.730;2023-01-08T04:25:15;20.87;;;12.17;;
47481;SDS011;33219;47.410;9.730;2023-01-08T04:27:44;15.73;;;10.10;;
47481;SDS011;33219;47.410;9.730;2023-01-08T04:30:11;15.07;;;10.70;;
47481;SDS011;33219;47.410;9.730;2023-01-08T04:32:39;15.53;;;9.87;;
47481;SDS011;33219;47.410;9.730;2023-01-08T04:35:07;12.57;;;7.83;;
47481;SDS011;33219;47.410;9.730;2023-01-08T04:37:35;10.23;;;6.77;;
47481;SDS011;33219;47.410;9.730;2023-01-08T04:40:02;10.07;;;6.17;;
47481;SDS011;33219;47.410;9.730;2023-01-08T04:42:30;11.80;;;6.93;;
47481;SDS011;33219;47.410;9.730;2023-01-08T04:44:58;10.77;;;7.43;;
47481;SDS011;33219;47.410;9.730;2023-01-08T04:47:25;10.97;;;6.97;;
47481;SDS011;33219;47.410;9.730;2023-01-08T04:49:53;11.90;;;7.87;;
47481;SDS011;33219;47.410;9.730;2023-01-08T04:52:20;11.07;;;7.20;;
47481;SDS011;33219;47.410;9.730;2023-01-08T04:54:48;10.23;;;6.37;;
47481;SDS011;33219;47.410;9.730;2023-01-08T04:57:16;8.90;;;6.40;;
47481;SDS011;33219;47.410;9.730;2023-01-08T04:59:43;8.80;;;6.20;;
47481;SDS011;33219;47.410;9.730;2023-01-08T05:02:11;7.93;;;5.50;;
47481;SDS011;33219;47.410;9.730;2023-01-08T05:04:39;7.60;;;5.33;;
47481;SDS011;33219;47.410;9.730;2023-01-08T05:07:06;8.83;;;6.03;;
47481;SDS011;33219;47.410;9.730;2023-01-08T05:09:34;9.63;;;6.30;;
47481;SDS011;33219;47.410;9.730;2023-01-08T05:12:01;8.33;;;5.73;;
47481;SDS011;33219;47.410;9.730;2023-01-08T05:14:29;10.30;;;7.07;;
47481;SDS011;33219;47.410;9.730;2023-01-08T05:16:57;10.63;;;7.10;;
47481;SDS011;33219;47.410;9.730;2023-01-08T05:19:24;11.23;;;7.13;;
47481;SDS011;33219;47.410;9.730;2023-01-08T05:21:52;11.43;;;7.93;;
47481;SDS011;33219;47.410;9.730;2023-01-08T05:24:19;11.70;;;7.07;;
47481;SDS011;33219;47.410;9.730;2023-01-08T05:26:47;10.63;;;7.00;;
47481;SDS011;33219;47.410;9.730;2023-01-08T05:29:16;11.27;;;7.70;;
47481;SDS011;33219;47.410;9.730;2023-01-08T05:31:43;10.67;;;7.70;;
47481;SDS011;33219;47.410;9.730;2023-01-08T05:34:11;11.50;;;8.13;;
47481;SDS011;33219;47.410;9.730;2023-01-08T05:36:39;11.10;;;7.87;;
47481;SDS011;33219;47.410;9.730;2023-01-08T05:39:06;12.47;;;8.60;;
47481;SDS011;33219;47.410;9.730;2023-01-08T05:41:34;17.03;;;10.10;;
47481;SDS011;33219;47.410;9.730;2023-01-08T05:44:01;39.67;;;15.70;;
47481;SDS011;33219;47.410;9.730;2023-01-08T05:46:29;18.20;;;9.87;;
47481;SDS011;33219;47.410;9.730;2023-01-08T05:48:56;16.77;;;9.60;;
47481;SDS011;33219;47.410;9.730;2023-01-08T05:51:24;12.10;;;8.00;;
47481;SDS011;33219;47.410;9.730;2023-01-08T05:53:52;11.47;;;6.93;;
47481;SDS011;33219;47.410;9.730;2023-01-08T05:56:19;8.73;;;5.37;;
47481;SDS011;33219;47.410;9.730;2023-01-08T05:58:47;7.10;;;5.17;;
47481;SDS011;33219;47.410;9.730;2023-01-08T06:01:15;8.07;;;5.47;;
47481;SDS011;33219;47.410;9.730;2023-01-08T06:03:42;6.93;;;5.07;;
47481;SDS011;33219;47.410;9.730;2023-01-08T06:06:10;6.70;;;4.00;;
47481;SDS011;33219;47.410;9.730;2023-01-08T06:08:38;6.63;;;4.43;;
47481;SDS011;33219;47.410;9.730;2023-01-08T06:11:06;5.40;;;3.20;;
47481;SDS011;33219;47.410;9.730;2023-01-08T06:13:34;5.53;;;3.30;;
47481;SDS011;33219;47.410;9.730;2023-01-08T06:16:04;4.47;;;2.97;;
47481;SDS011;33219;47.410;9.730;2023-01-08T06:18:31;4.77;;;3.03;;
47481;SDS011;33219;47.410;9.730;2023-01-08T06:21:00;6.63;;;3.27;;
47481;SDS011;33219;47.410;9.730;2023-01-08T06:23:29;6.47;;;3.80;;
47481;SDS011;33219;47.410;9.730;2023-01-08T06:25:58;6.73;;;3.70;;
47481;SDS011;33219;47.410;9.730;2023-01-08T06:28:28;4.07;;;2.60;;
47481;SDS011;33219;47.410;9.730;2023-01-08T06:30:56;5.90;;;3.40;;
47481;SDS011;33219;47.410;9.730;2023-01-08T06:33:28;4.40;;;2.67;;
47481;SDS011;33219;47.410;9.730;2023-01-08T06:36:00;6.50;;;3.67;;
47481;SDS011;33219;47.410;9.730;2023-01-08T06:38:29;10.65;;;6.20;;
47481;SDS011;33219;47.410;9.730;2023-01-08T06:41:09;9.80;;;6.30;;
47481;SDS011;33219;47.410;9.730;2023-01-08T06:43:33;7.90;;;5.63;;
47481;SDS011;33219;47.410;9.730;2023-01-08T06:46:03;9.37;;;5.93;;
47481;SDS011;33219;47.410;9.730;2023-01-08T06:48:31;8.63;;;5.93;;
47481;SDS011;33219;47.410;9.730;2023-01-08T06:51:02;10.57;;;6.67;;
47481;SDS011;33219;47.410;9.730;2023-01-08T06:53:30;9.27;;;6.37;;
47481;SDS011;33219;47.410;9.730;2023-01-08T06:55:58;12.33;;;7.03;;
47481;SDS011;33219;47.410;9.730;2023-01-08T06:58:26;6.43;;;4.27;;
47481;SDS011;33219;47.410;9.730;2023-01-08T07:00:55;6.93;;;4.50;;
47481;SDS011;33219;47.410;9.730;2023-01-08T07:03:23;8.37;;;5.77;;
47481;SDS011;33219;47.410;9.730;2023-01-08T07:05:51;8.83;;;5.97;;
47481;SDS011;33219;47.410;9.730;2023-01-08T07:08:18;9.30;;;5.93;;
47481;SDS011;33219;47.410;9.730;2023-01-08T07:10:46;8.77;;;5.80;;
47481;SDS011;33219;47.410;9.730;2023-01-08T07:13:14;8.27;;;5.50;;
47481;SDS011;33219;47.410;9.730;2023-01-08T07:15:41;6.40;;;4.47;;
47481;SDS011;33219;47.410;9.730;2023-01-08T07:18:09;7.60;;;4.60;;
47481;SDS011;33219;47.410;9.730;2023-01-08T07:20:38;8.37;;;4.63;;
47481;SDS011;33219;47.410;9.730;2023-01-08T07:23:07;7.60;;;5.17;;
47481;SDS011;33219;47.410;9.730;2023-01-08T07:25:36;8.10;;;5.20;;
47481;SDS011;33219;47.410;9.730;2023-01-08T07:28:04;9.07;;;6.10;;
47481;SDS011;33219;47.410;9.730;2023-01-08T07:30:32;7.37;;;5.60;;
47481;SDS011;33219;47.410;9.730;2023-01-08T07:33:00;7.77;;;5.07;;
47481;SDS011;33219;47.410;9.730;2023-01-08T07:35:27;8.20;;;5.60;;
47481;SDS011;33219;47.410;9.730;2023-01-08T07:37:55;8.90;;;6.40;;
47481;SDS011;33219;47.410;9.730;2023-01-08T07:40:23;5.93;;;4.30;;
47481;SDS011;33219;47.410;9.730;2023-01-08T07:43:03;6.90;;;4.97;;
47481;SDS011;33219;47.410;9.730;2023-01-08T07:45:31;6.80;;;4.63;;
47481;SDS011;33219;47.410;9.730;2023-01-08T07:47:59;6.37;;;4.33;;
47481;SDS011;33219;47.410;9.730;2023-01-08T07:50:27;8.27;;;4.87;;
47481;SDS011;33219;47.410;9.730;2023-01-08T07:52:58;6.50;;;4.60;;
47481;SDS011;33219;47.410;9.730;2023-01-08T07:55:27;7.35;;;5.05;;
47481;SDS011;33219;47.410;9.730;2023-01-08T07:57:55;9.10;;;6.40;;
47481;SDS011;33219;47.410;9.730;2023-01-08T08:00:22;7.60;;;6.00;;
47481;SDS011;33219;47.410;9.730;2023-01-08T08:02:50;7.57;;;5.60;;
47481;SDS011;33219;47.410;9.730;2023-01-08T08:05:18;7.33;;;5.30;;
47481;SDS011;33219;47.410;9.730;2023-01-08T08:07:45;7.63;;;5.50;;
47481;SDS011;33219;47.410;9.730;2023-01-08T08:10:13;9.33;;;7.03;;
47481;SDS011;33219;47.410;9.730;2023-01-08T08:12:43;10.37;;;7.53;;
47481;SDS011;33219;47.410;9.730;2023-01-08T08:15:10;10.90;;;7.87;;
47481;SDS011;33219;47.410;9.730;2023-01-08T08:17:38;13.43;;;9.17;;
47481;SDS011;33219;47.410;9.730;2023-01-08T08:20:05;17.40;;;11.37;;
47481;SDS011;33219;47.410;9.730;2023-01-08T08:22:34;17.43;;;11.43;;
47481;SDS011;33219;47.410;9.730;2023-01-08T08:25:02;15.30;;;10.60;;
47481;SDS011;33219;47.410;9.730;2023-01-08T08:27:30;15.47;;;10.20;;
47481;SDS011;33219;47.410;9.730;2023-01-08T08:29:57;15.30;;;9.70;;
47481;SDS011;33219;47.410;9.730;2023-01-08T08:32:25;14.00;;;10.27;;
47481;SDS011;33219;47.410;9.730;2023-01-08T08:34:53;17.90;;;12.40;;
47481;SDS011;33219;47.410;9.730;2023-01-08T08:37:20;17.83;;;13.07;;
47481;SDS011;33219;47.410;9.730;2023-01-08T08:39:48;22.13;;;14.90;;
47481;SDS011;33219;47.410;9.730;2023-01-08T08:42:15;22.17;;;15.83;;
47481;SDS011;33219;47.410;9.730;2023-01-08T08:44:43;23.60;;;15.73;;
47481;SDS011;33219;47.410;9.730;2023-01-08T08:47:10;23.70;;;16.90;;
47481;SDS011;33219;47.410;9.730;2023-01-08T08:49:39;31.83;;;20.50;;
47481;SDS011;33219;47.410;9.730;2023-01-08T08:52:06;27.33;;;17.13;;
47481;SDS011;33219;47.410;9.730;2023-01-08T08:54:34;23.50;;;15.57;;
47481;SDS011;33219;47.410;9.730;2023-01-08T08:57:03;19.20;;;13.13;;
47481;SDS011;33219;47.410;9.730;2023-01-08T08:59:30;19.53;;;13.83;;
47481;SDS011;33219;47.410;9.730;2023-01-08T09:01:58;20.43;;;14.57;;
47481;SDS011;33219;47.410;9.730;2023-01-08T09:04:28;22.03;;;15.73;;
47481;SDS011;33219;47.410;9.730;2023-01-08T09:06:55;21.00;;;14.00;;
47481;SDS011;33219;47.410;9.730;2023-01-08T09:09:23;20.33;;;15.93;;
47481;SDS011;33219;47.410;9.730;2023-01-08T09:11:51;21.93;;;16.73;;
47481;SDS011;33219;47.410;9.730;2023-01-08T09:14:19;25.00;;;16.80;;
47481;SDS011;33219;47.410;9.730;2023-01-08T09:16:47;23.27;;;15.90;;
47481;SDS011;33219;47.410;9.730;2023-01-08T09:19:15;21.83;;;14.30;;
47481;SDS011;33219;47.410;9.730;2023-01-08T09:21:42;19.87;;;13.40;;
47481;SDS011;33219;47.410;9.730;2023-01-08T09:24:10;16.73;;;11.87;;
47481;SDS011;33219;47.410;9.730;2023-01-08T09:26:38;18.53;;;13.03;;
47481;SDS011;33219;47.410;9.730;2023-01-08T09:29:06;18.03;;;13.57;;
47481;SDS011;33219;47.410;9.730;2023-01-08T09:31:33;17.47;;;11.33;;
47481;SDS011;33219;47.410;9.730;2023-01-08T09:34:01;13.07;;;8.50;;
47481;SDS011;33219;47.410;9.730;2023-01-08T09:36:28;12.50;;;7.90;;
47481;SDS011;33219;47.410;9.730;2023-01-08T09:38:56;10.47;;;6.23;;
47481;SDS011;33219;47.410;9.730;2023-01-08T09:41:25;7.43;;;5.00;;
47481;SDS011;33219;47.410;9.730;2023-01-08T09:44:03;8.33;;;5.40;;
47481;SDS011;33219;47.410;9.730;2023-01-08T09:46:32;7.33;;;4.87;;
47481;SDS011;33219;47.410;9.730;2023-01-08T09:49:03;6.27;;;4.30;;
47481;SDS011;33219;47.410;9.730;2023-01-08T09:51:37;7.20;;;4.97;;
47481;SDS011;33219;47.410;9.730;2023-01-08T09:54:02;7.13;;;4.63;;
47481;SDS011;33219;47.410;9.730;2023-01-08T09:56:32;7.87;;;4.53;;
47481;SDS011;33219;47.410;9.730;2023-01-08T09:59:01;7.28;;;4.40;;
47481;SDS011;33219;47.410;9.730;2023-01-08T10:01:33;7.50;;;4.90;;
47481;SDS011;33219;47.410;9.730;2023-01-08T10:07:01;8.00;;;5.65;;
47481;SDS011;33219;47.410;9.730;2023-01-08T10:09:33;8.33;;;5.50;;
47481;SDS011;33219;47.410;9.730;2023-01-08T10:12:02;12.40;;;6.85;;
47481;SDS011;33219;47.410;9.730;2023-01-08T10:14:32;11.50;;;6.58;;
47481;SDS011;33219;47.410;9.730;2023-01-08T10:17:06;11.57;;;6.90;;
47481;SDS011;33219;47.410;9.730;2023-01-08T10:19:34;10.10;;;6.85;;
47481;SDS011;33219;47.410;9.730;2023-01-08T10:22:04;10.65;;;6.97;;
47481;SDS011;33219;47.410;9.730;2023-01-08T10:24:34;9.13;;;6.00;;
47481;SDS011;33219;47.410;9.730;2023-01-08T10:27:05;9.03;;;5.78;;
47481;SDS011;33219;47.410;9.730;2023-01-08T10:29:35;8.90;;;6.80;;
47481;SDS011;33219;47.410;9.730;2023-01-08T10:32:47;10.90;;;6.65;;
47481;SDS011;33219;47.410;9.730;2023-01-08T10:37:36;9.60;;;5.72;;
47481;SDS011;33219;47.410;9.730;2023-01-08T10:42:47;9.98;;;5.20;;
47481;SDS011;33219;47.410;9.730;2023-01-08T10:45:20;8.53;;;5.83;;
47481;SDS011;33219;47.410;9.730;2023-01-08T10:47:51;9.60;;;5.75;;
47481;SDS011;33219;47.410;9.730;2023-01-08T10:50:28;9.05;;;5.85;;
47481;SDS011;33219;47.410;9.730;2023-01-08T10:53:03;10.70;;;5.50;;
47481;SDS011;33219;47.410;9.730;2023-01-08T10:55:28;9.40;;;5.85;;
47481;SDS011;33219;47.410;9.730;2023-01-08T10:58:04;8.33;;;5.87;;
47481;SDS011;33219;47.410;9.730;2023-01-08T11:00:36;10.40;;;6.53;;
47481;SDS011;33219;47.410;9.730;2023-01-08T11:03:05;8.15;;;5.72;;
47481;SDS011;33219;47.410;9.730;2023-01-08T11:05:38;8.43;;;5.75;;
47481;SDS011;33219;47.410;9.730;2023-01-08T11:08:12;9.85;;;7.03;;
47481;SDS011;33219;47.410;9.730;2023-01-08T11:10:41;10.35;;;7.33;;
47481;SDS011;33219;47.410;9.730;2023-01-08T11:13:16;9.78;;;7.42;;
47481;SDS011;33219;47.410;9.730;2023-01-08T11:15:45;11.12;;;7.05;;
47481;SDS011;33219;47.410;9.730;2023-01-08T11:18:24;9.30;;;6.90;;
47481;SDS011;33219;47.410;9.730;2023-01-08T11:20:45;10.25;;;7.58;;
47481;SDS011;33219;47.410;9.730;2023-01-08T11:23:22;11.15;;;7.78;;
47481;SDS011;33219;47.410;9.730;2023-01-08T11:25:58;9.23;;;7.12;;
47481;SDS011;33219;47.410;9.730;2023-01-08T11:36:35;10.80;;;7.42;;
47481;SDS011;33219;47.410;9.730;2023-01-08T11:39:06;13.68;;;9.90;;
47481;SDS011;33219;47.410;9.730;2023-01-08T11:44:28;14.47;;;9.00;;
47481;SDS011;33219;47.410;9.730;2023-01-08T11:47:13;11.88;;;8.30;;
47481;SDS011;33219;47.410;9.730;2023-01-08T11:55:23;11.70;;;8.18;;
47481;SDS011;33219;47.410;9.730;2023-01-08T11:57:55;11.73;;;8.93;;
47481;SDS011;33219;47.410;9.730;2023-01-08T12:00:41;19.50;;;12.88;;
47481;SDS011;33219;47.410;9.730;2023-01-08T12:03:41;20.70;;;14.33;;
47481;SDS011;33219;47.410;9.730;2023-01-08T12:06:21;19.67;;;13.70;;
47481;SDS011;33219;47.410;9.730;2023-01-08T12:11:49;13.40;;;9.98;;
47481;SDS011;33219;47.410;9.730;2023-01-08T12:14:38;11.55;;;8.20;;
47481;SDS011;33219;47.410;9.730;2023-01-08T12:17:17;12.68;;;9.35;;
47481;SDS011;33219;47.410;9.730;2023-01-08T12:22:36;17.50;;;11.80;;
47481;SDS011;33219;47.410;9.730;2023-01-08T12:33:42;15.05;;;9.70;;
47481;SDS011;33219;47.410;9.730;2023-01-08T12:36:22;13.18;;;9.33;;
47481;SDS011;33219;47.410;9.730;2023-01-08T12:38:52;11.88;;;9.08;;
47481;SDS011;33219;47.410;9.730;2023-01-08T12:41:21;13.53;;;9.40;;
47481;SDS011;33219;47.410;9.730;2023-01-08T12:43:56;21.90;;;13.58;;
47481;SDS011;33219;47.410;9.730;2023-01-08T12:46:30;19.40;;;12.37;;
47481;SDS011;33219;47.410;9.730;2023-01-08T12:49:01;10.63;;;8.33;;
47481;SDS011;33219;47.410;9.730;2023-01-08T12:51:33;13.48;;;9.75;;
47481;SDS011;33219;47.410;9.730;2023-01-08T12:54:15;14.55;;;9.68;;
47481;SDS011;33219;47.410;9.730;2023-01-08T12:59:16;22.55;;;12.45;;
47481;SDS011;33219;47.410;9.730;2023-01-08T13:01:51;14.83;;;10.00;;
47481;SDS011;33219;47.410;9.730;2023-01-08T13:04:20;14.30;;;9.45;;
47481;SDS011;33219;47.410;9.730;2023-01-08T13:06:54;12.78;;;8.85;;
47481;SDS011;33219;47.410;9.730;2023-01-08T13:09:24;12.00;;;8.95;;
47481;SDS011;33219;47.410;9.730;2023-01-08T13:11:54;12.43;;;9.28;;
47481;SDS011;33219;47.410;9.730;2023-01-08T13:14:23;12.95;;;9.68;;
47481;SDS011;33219;47.410;9.730;2023-01-08T13:17:03;13.53;;;9.85;;
47481;SDS011;33219;47.410;9.730;2023-01-08T13:19:38;12.40;;;7.83;;
47481;SDS011;33219;47.410;9.730;2023-01-08T13:22:26;10.58;;;7.67;;
47481;SDS011;33219;47.410;9.730;2023-01-08T13:27:46;10.48;;;7.87;;
47481;SDS011;33219;47.410;9.730;2023-01-08T13:36:17;12.13;;;8.08;;
47481;SDS011;33219;47.410;9.730;2023-01-08T13:41:30;11.60;;;8.73;;
47481;SDS011;33219;47.410;9.730;2023-01-08T13:44:01;9.18;;;7.05;;
47481;SDS011;33219;47.410;9.730;2023-01-08T13:46:34;9.48;;;6.50;;
47481;SDS011;33219;47.410;9.730;2023-01-08T13:49:06;9.40;;;7.28;;
47481;SDS011;33219;47.410;9.730;2023-01-08T13:56:43;11.15;;;7.92;;
47481;SDS011;33219;47.410;9.730;2023-01-08T13:59:26;11.53;;;8.18;;
47481;SDS011;33219;47.410;9.730;2023-01-08T14:01:54;13.95;;;8.28;;
47481;SDS011;33219;47.410;9.730;2023-01-08T14:04:24;12.18;;;7.47;;
47481;SDS011;33219;47.410;9.730;2023-01-08T14:06:52;10.32;;;6.97;;
47481;SDS011;33219;47.410;9.730;2023-01-08T14:09:22;9.78;;;7.40;;
47481;SDS011;33219;47.410;9.730;2023-01-08T14:11:53;9.83;;;7.85;;
47481;SDS011;33219;47.410;9.730;2023-01-08T14:14:21;10.38;;;7.37;;
47481;SDS011;33219;47.410;9.730;2023-01-08T14:16:50;12.78;;;9.08;;
47481;SDS011;33219;47.410;9.730;2023-01-08T14:19:20;12.70;;;8.83;;
47481;SDS011;33219;47.410;9.730;2023-01-08T14:21:50;13.62;;;8.90;;
47481;SDS011;33219;47.410;9.730;2023-01-08T14:24:21;12.13;;;9.00;;
47481;SDS011;33219;47.410;9.730;2023-01-08T14:26:55;13.98;;;8.43;;
47481;SDS011;33219;47.410;9.730;2023-01-08T14:29:26;10.80;;;8.25;;
47481;SDS011;33219;47.410;9.730;2023-01-08T14:31:57;9.93;;;6.77;;
47481;SDS011;33219;47.410;9.730;2023-01-08T14:34:31;12.95;;;9.30;;
47481;SDS011;33219;47.410;9.730;2023-01-08T14:36:56;14.10;;;8.90;;
47481;SDS011;33219;47.410;9.730;2023-01-08T14:42:00;13.78;;;10.10;;
47481;SDS011;33219;47.410;9.730;2023-01-08T14:44:55;13.75;;;9.70;;
47481;SDS011;33219;47.410;9.730;2023-01-08T14:47:27;15.63;;;10.65;;
47481;SDS011;33219;47.410;9.730;2023-01-08T14:49:58;12.82;;;9.75;;
47481;SDS011;33219;47.410;9.730;2023-01-08T14:52:26;14.10;;;10.35;;
47481;SDS011;33219;47.410;9.730;2023-01-08T14:54:55;13.38;;;9.93;;
47481;SDS011;33219;47.410;9.730;2023-01-08T14:57:25;11.35;;;7.83;;
47481;SDS011;33219;47.410;9.730;2023-01-08T14:59:55;9.20;;;6.47;;
47481;SDS011;33219;47.410;9.730;2023-01-08T15:02:29;10.05;;;7.25;;
47481;SDS011;33219;47.410;9.730;2023-01-08T15:07:56;12.30;;;7.92;;
47481;SDS011;33219;47.410;9.730;2023-01-08T15:10:38;10.82;;;7.28;;
47481;SDS011;33219;47.410;9.730;2023-01-08T15:13:20;11.97;;;8.40;;
47481;SDS011;33219;47.410;9.730;2023-01-08T15:15:55;10.98;;;7.72;;
47481;SDS011;33219;47.410;9.730;2023-01-08T15:18:20;11.15;;;8.20;;
47481;SDS011;33219;47.410;9.730;2023-01-08T15:20:48;12.05;;;8.68;;
47481;SDS011;33219;47.410;9.730;2023-01-08T15:23:26;13.35;;;8.40;;
47481;SDS011;33219;47.410;9.730;2023-01-08T15:25:55;11.15;;;8.65;;
47481;SDS011;33219;47.410;9.730;2023-01-08T15:28:23;12.68;;;8.98;;
47481;SDS011;33219;47.410;9.730;2023-01-08T15:30:52;13.05;;;8.60;;
47481;SDS011;33219;47.410;9.730;2023-01-08T15:33:22;12.85;;;8.88;;
47481;SDS011;33219;47.410;9.730;2023-01-08T15:35:52;14.73;;;9.65;;
47481;SDS011;33219;47.410;9.730;2023-01-08T15:38:19;15.08;;;9.75;;
47481;SDS011;33219;47.410;9.730;2023-01-08T15:40:48;14.83;;;9.73;;
47481;SDS011;33219;47.410;9.730;2023-01-08T15:43:18;15.08;;;9.70;;
47481;SDS011;33219;47.410;9.730;2023-01-08T15:45:47;13.00;;;9.83;;
47481;SDS011;33219;47.410;9.730;2023-01-08T15:48:16;14.23;;;10.23;;
47481;SDS011;33219;47.410;9.730;2023-01-08T15:50:43;15.45;;;10.72;;
47481;SDS011;33219;47.410;9.730;2023-01-08T15:53:14;14.65;;;10.35;;
47481;SDS011;33219;47.410;9.730;2023-01-08T15:55:46;13.85;;;9.53;;
47481;SDS011;33219;47.410;9.730;2023-01-08T15:58:14;13.40;;;10.15;;
47481;SDS011;33219;47.410;9.730;2023-01-08T16:00:43;17.05;;;10.48;;
47481;SDS011;33219;47.410;9.730;2023-01-08T16:03:12;16.25;;;10.38;;
47481;SDS011;33219;47.410;9.730;2023-01-08T16:05:40;15.50;;;10.82;;
47481;SDS011;33219;47.410;9.730;2023-01-08T16:08:08;12.30;;;10.25;;
47481;SDS011;33219;47.410;9.730;2023-01-08T16:10:36;15.32;;;10.43;;